Time;durP1;ratioP1;P1;durP2;ratioP2;P2;SDS_P1;SDS_P2;PMS_P1;PMS_P2;Temp;Humidity;BMP_temperature;BMP_pressure;BME280_temperature;BME280_humidity;BME280_pressure;Samples;Min_cycle;Max_cycle;Signal;HPM_P1;HPM_P2
2022/05/16 00:01:35;;;;;;;9.70;3.85;;;;;;;;;;4975933;28;20112;-77
2022/05/16 00:04:01;;;;;;;10.10;3.65;;;;;;;;;;4959940;28;20121;-77
2022/05/16 00:06:27;;;;;;;10.85;4.00;;;;;;;;;;4959688;28;20070;-77
2022/05/16 00:08:55;;;;;;;12.40;4.05;;;;;;;;;;4959972;28;20061;-77
2022/05/16 00:11:21;;;;;;;11.35;4.00;;;;;;;;;;4993050;28;20479;-77
2022/05/16 00:13:47;;;;;;;8.98;4.00;;;;;;;;;;4959503;28;20038;-77
2022/05/16 00:16:14;;;;;;;12.50;4.18;;;;;;;;;;4975702;28;20116;-77
2022/05/16 00:18:40;;;;;;;10.32;4.20;;;;;;;;;;4976088;28;20177;-77
2022/05/16 00:21:06;;;;;;;9.38;4.00;;;;;;;;;;4974670;28;20045;-77
2022/05/16 00:23:32;;;;;;;10.65;4.20;;;;;;;;;;4993129;28;20070;-77
2022/05/16 00:25:58;;;;;;;11.23;4.20;;;;;;;;;;4974865;28;20042;-77
2022/05/16 00:28:24;;;;;;;12.48;4.40;;;;;;;;;;4975133;28;20049;-77
2022/05/16 00:30:50;;;;;;;8.82;3.67;;;;;;;;;;4975612;28;20050;-77
2022/05/16 00:33:16;;;;;;;9.30;3.70;;;;;;;;;;4975258;28;20068;-77
2022/05/16 00:35:44;;;;;;;9.18;4.05;;;;;;;;;;4959067;28;20129;-77
2022/05/16 00:38:10;;;;;;;8.70;4.18;;;;;;;;;;4975781;28;20042;-77
2022/05/16 00:40:36;;;;;;;7.78;3.65;;;;;;;;;;4975592;28;20065;-77
2022/05/16 00:43:06;;;;;;;9.98;4.40;;;;;;;;;;4975136;28;20494;-76
2022/05/16 00:45:32;;;;;;;10.82;4.55;;;;;;;;;;4975723;28;20479;-77
2022/05/16 00:47:59;;;;;;;10.00;3.70;;;;;;;;;;4963002;28;20047;-76
2022/05/16 00:50:25;;;;;;;11.00;3.80;;;;;;;;;;4971608;28;20057;-76
2022/05/16 00:52:52;;;;;;;11.43;3.90;;;;;;;;;;4975018;28;20045;-76
2022/05/16 00:55:23;;;;;;;15.50;4.70;;;;;;;;;;4974634;28;20058;-77
2022/05/16 00:57:50;;;;;;;10.70;4.45;;;;;;;;;;4975280;28;20054;-77
2022/05/16 01:00:21;;;;;;;9.07;4.07;;;;;;;;;;4974773;28;20133;-77
2022/05/16 01:05:40;;;;;;;10.38;4.20;;;;;;;;;;4980098;28;20046;-77
2022/05/16 01:08:09;;;;;;;10.05;4.20;;;;;;;;;;4974430;28;20034;-77
2022/05/16 01:10:36;;;;;;;9.50;4.03;;;;;;;;;;4975277;28;20051;-76
2022/05/16 01:13:03;;;;;;;8.50;3.85;;;;;;;;;;4974248;28;20174;-76
2022/05/16 01:15:43;;;;;;;13.55;4.53;;;;;;;;;;4959055;28;20101;-76
2022/05/16 01:18:10;;;;;;;12.90;4.15;;;;;;;;;;4974324;28;20077;-76
2022/05/16 01:20:42;;;;;;;11.32;4.75;;;;;;;;;;4974803;28;20046;-76
2022/05/16 01:23:09;;;;;;;10.95;4.03;;;;;;;;;;4974388;28;20042;-76
2022/05/16 01:25:35;;;;;;;6.85;3.88;;;;;;;;;;4975077;28;20089;-77
2022/05/16 01:28:05;;;;;;;10.00;3.97;;;;;;;;;;4974586;28;20536;-77
2022/05/16 01:30:41;;;;;;;11.20;4.47;;;;;;;;;;4974949;28;20042;-77
2022/05/16 01:33:07;;;;;;;11.13;4.38;;;;;;;;;;4973927;28;20039;-77
2022/05/16 01:35:33;;;;;;;14.00;4.15;;;;;;;;;;4974867;28;20066;-77
2022/05/16 01:38:18;;;;;;;10.00;4.38;;;;;;;;;;4974174;28;20083;-77
2022/05/16 01:41:05;;;;;;;10.50;5.07;;;;;;;;;;4974352;28;20054;-77
2022/05/16 01:43:33;;;;;;;13.93;4.30;;;;;;;;;;4973802;28;20073;-77
2022/05/16 01:45:59;;;;;;;8.77;4.25;;;;;;;;;;4958220;28;20054;-77
2022/05/16 01:48:29;;;;;;;13.25;4.47;;;;;;;;;;4971876;28;20073;-77
2022/05/16 01:50:57;;;;;;;13.75;4.60;;;;;;;;;;4974404;28;20057;-77
2022/05/16 01:53:23;;;;;;;12.73;4.32;;;;;;;;;;4991527;28;20495;-77
2022/05/16 01:55:49;;;;;;;10.38;4.30;;;;;;;;;;4974027;28;20569;-77
2022/05/16 01:58:15;;;;;;;9.88;4.20;;;;;;;;;;4973780;28;20517;-76
2022/05/16 02:00:42;;;;;;;9.65;4.18;;;;;;;;;;4958363;28;20054;-77
2022/05/16 02:03:08;;;;;;;9.13;3.95;;;;;;;;;;4960692;28;20526;-77
2022/05/16 02:05:34;;;;;;;9.82;4.32;;;;;;;;;;4981925;28;20077;-77
2022/05/16 02:08:00;;;;;;;6.95;3.70;;;;;;;;;;4972893;28;20061;-77
2022/05/16 02:10:26;;;;;;;12.40;4.15;;;;;;;;;;4973296;28;20046;-77
2022/05/16 02:12:53;;;;;;;10.25;4.20;;;;;;;;;;4973534;28;20039;-76
2022/05/16 02:15:21;;;;;;;11.93;4.60;;;;;;;;;;4973363;28;20560;-77
2022/05/16 02:17:48;;;;;;;13.02;4.35;;;;;;;;;;4991398;28;20081;-77
2022/05/16 02:20:14;;;;;;;8.80;4.32;;;;;;;;;;4973693;28;20177;-77
2022/05/16 02:25:25;;;;;;;11.35;4.38;;;;;;;;;;4986204;28;20038;-76
2022/05/16 02:27:51;;;;;;;12.38;4.40;;;;;;;;;;4973391;28;20622;-77
2022/05/16 02:30:20;;;;;;;11.23;4.53;;;;;;;;;;4973163;28;20526;-77
2022/05/16 02:32:46;;;;;;;13.32;4.65;;;;;;;;;;4973459;28;20050;-76
2022/05/16 02:35:13;;;;;;;10.07;4.22;;;;;;;;;;4971803;28;20088;-76
2022/05/16 02:37:39;;;;;;;9.68;4.70;;;;;;;;;;4972065;28;20050;-77
2022/05/16 02:40:06;;;;;;;14.38;4.43;;;;;;;;;;4972081;28;20498;-77
2022/05/16 02:42:32;;;;;;;8.88;4.20;;;;;;;;;;4972597;28;20200;-77
2022/05/16 02:44:58;;;;;;;13.70;4.50;;;;;;;;;;4971572;28;20050;-77
2022/05/16 02:47:24;;;;;;;7.47;4.03;;;;;;;;;;4970965;28;20049;-77
2022/05/16 02:49:51;;;;;;;11.45;4.20;;;;;;;;;;4972291;28;20046;-77
2022/05/16 02:52:17;;;;;;;14.20;4.32;;;;;;;;;;4972425;28;20046;-77
2022/05/16 02:54:44;;;;;;;8.27;4.07;;;;;;;;;;4973082;28;20050;-77
2022/05/16 02:57:10;;;;;;;12.18;4.53;;;;;;;;;;4972845;28;20108;-77
2022/05/16 02:59:36;;;;;;;9.13;4.80;;;;;;;;;;4972621;28;20073;-77
2022/05/16 03:02:07;;;;;;;9.80;4.30;;;;;;;;;;4972168;28;20046;-77
2022/05/16 03:04:33;;;;;;;12.10;4.38;;;;;;;;;;4973212;28;20069;-77
2022/05/16 03:06:59;;;;;;;10.32;4.13;;;;;;;;;;4972417;28;20042;-77
2022/05/16 03:09:26;;;;;;;10.68;4.10;;;;;;;;;;4973003;28;20046;-77
2022/05/16 03:11:52;;;;;;;9.23;4.55;;;;;;;;;;4972474;28;20045;-77
2022/05/16 03:14:18;;;;;;;12.73;4.50;;;;;;;;;;4972564;28;20117;-77
2022/05/16 03:16:45;;;;;;;11.45;4.85;;;;;;;;;;4973301;28;20065;-77
2022/05/16 03:19:11;;;;;;;10.73;3.60;;;;;;;;;;4972579;28;20050;-77
2022/05/16 03:21:37;;;;;;;10.63;4.63;;;;;;;;;;4972763;28;20034;-77
2022/05/16 03:24:03;;;;;;;13.25;4.40;;;;;;;;;;4972658;28;20383;-77
2022/05/16 03:26:29;;;;;;;11.95;4.72;;;;;;;;;;4972966;28;20053;-77
2022/05/16 03:28:55;;;;;;;11.32;5.00;;;;;;;;;;4973204;28;20050;-77
2022/05/16 03:31:21;;;;;;;11.70;4.22;;;;;;;;;;4972211;28;20034;-77
2022/05/16 03:33:47;;;;;;;10.90;4.13;;;;;;;;;;4972462;28;20042;-77
2022/05/16 03:36:14;;;;;;;11.50;4.10;;;;;;;;;;4972407;28;20043;-77
2022/05/16 03:41:25;;;;;;;10.50;4.30;;;;;;;;;;4972241;28;20557;-77
2022/05/16 03:43:51;;;;;;;11.48;4.25;;;;;;;;;;4972835;28;20380;-77
2022/05/16 03:46:17;;;;;;;8.55;4.13;;;;;;;;;;4972702;28;20092;-77
2022/05/16 03:48:43;;;;;;;10.75;4.10;;;;;;;;;;4971630;28;20065;-77
2022/05/16 03:51:10;;;;;;;11.50;4.25;;;;;;;;;;4989605;28;20038;-77
2022/05/16 03:53:43;;;;;;;10.15;4.00;;;;;;;;;;4972752;28;20034;-77
2022/05/16 03:56:10;;;;;;;13.55;4.47;;;;;;;;;;4975149;28;20070;-77
2022/05/16 03:58:36;;;;;;;11.57;3.88;;;;;;;;;;4976050;28;20053;-77
2022/05/16 04:01:02;;;;;;;11.70;4.28;;;;;;;;;;4974547;28;20053;-78
2022/05/16 04:03:28;;;;;;;11.35;3.92;;;;;;;;;;4965789;28;20128;-77
2022/05/16 04:05:54;;;;;;;9.13;3.72;;;;;;;;;;4958340;28;20054;-77
2022/05/16 04:08:20;;;;;;;9.63;3.80;;;;;;;;;;4974734;28;20165;-77
2022/05/16 04:10:46;;;;;;;12.05;3.80;;;;;;;;;;4959494;28;20046;-77
2022/05/16 04:13:12;;;;;;;12.18;3.70;;;;;;;;;;4975126;28;20046;-77
2022/05/16 04:15:38;;;;;;;9.88;3.83;;;;;;;;;;4974469;28;20074;-77
2022/05/16 04:18:04;;;;;;;8.45;3.72;;;;;;;;;;4958989;28;20609;-77
2022/05/16 04:20:31;;;;;;;11.00;3.53;;;;;;;;;;4958606;28;20479;-77
2022/05/16 04:22:57;;;;;;;7.90;3.65;;;;;;;;;;4975335;28;20453;-78
2022/05/16 04:25:23;;;;;;;7.60;3.45;;;;;;;;;;4974798;28;20081;-77
2022/05/16 04:27:50;;;;;;;8.55;3.28;;;;;;;;;;4959505;28;20414;-77
2022/05/16 04:30:16;;;;;;;11.50;3.70;;;;;;;;;;4975235;28;20796;-78
2022/05/16 04:32:42;;;;;;;8.27;3.80;;;;;;;;;;4976136;28;20644;-77
2022/05/16 04:35:08;;;;;;;10.32;3.90;;;;;;;;;;4974912;28;20104;-78
2022/05/16 04:37:35;;;;;;;7.43;3.08;;;;;;;;;;4992577;28;20077;-78
2022/05/16 04:40:01;;;;;;;10.82;3.70;;;;;;;;;;4975663;28;20533;-78
2022/05/16 04:42:40;;;;;;;8.73;3.63;;;;;;;;;;4975274;28;20053;-77
2022/05/16 04:45:07;;;;;;;8.55;3.83;;;;;;;;;;4959016;28;20100;-77
2022/05/16 04:47:33;;;;;;;7.50;3.58;;;;;;;;;;4974107;28;20077;-78
2022/05/16 04:49:59;;;;;;;9.95;3.60;;;;;;;;;;4974615;28;20100;-78
2022/05/16 04:52:25;;;;;;;11.38;3.50;;;;;;;;;;4991334;28;20721;-77
2022/05/16 04:54:51;;;;;;;7.47;3.30;;;;;;;;;;4974223;28;20039;-77
2022/05/16 04:57:18;;;;;;;9.77;3.28;;;;;;;;;;4973607;28;20038;-77
2022/05/16 04:59:47;;;;;;;7.95;3.50;;;;;;;;;;4961724;28;20046;-77
2022/05/16 05:02:13;;;;;;;10.13;3.13;;;;;;;;;;4973731;28;20053;-77
2022/05/16 05:04:39;;;;;;;8.02;3.35;;;;;;;;;;4957635;28;20038;-77
2022/05/16 05:07:05;;;;;;;8.57;3.50;;;;;;;;;;4986153;28;20085;-77
2022/05/16 05:14:31;;;;;;;7.97;3.35;;;;;;;;;;4973616;28;20793;-78
2022/05/16 05:15:02;;;;;;;9.45;3.95;;;;;;;;;;4973965;28;20943;-78
2022/05/16 05:17:28;;;;;;;11.65;3.47;;;;;;;;;;4973685;28;20108;-78
2022/05/16 05:19:54;;;;;;;9.98;3.70;;;;;;;;;;4973482;28;20050;-78
2022/05/16 05:22:20;;;;;;;8.52;3.83;;;;;;;;;;4972716;28;20141;-78
2022/05/16 05:24:46;;;;;;;9.07;3.25;;;;;;;;;;4973947;28;20101;-79
2022/05/16 05:27:13;;;;;;;9.20;3.10;;;;;;;;;;4967470;28;20061;-79
2022/05/16 05:29:39;;;;;;;11.25;3.63;;;;;;;;;;4974478;28;20078;-78
2022/05/16 05:32:06;;;;;;;8.88;3.03;;;;;;;;;;4973739;28;20061;-78
2022/05/16 05:34:34;;;;;;;11.02;3.38;;;;;;;;;;4974247;28;20084;-78
2022/05/16 05:37:00;;;;;;;6.90;2.90;;;;;;;;;;4974420;28;20392;-78
2022/05/16 05:39:26;;;;;;;8.85;3.13;;;;;;;;;;4974454;28;20395;-79
2022/05/16 05:41:53;;;;;;;9.00;3.30;;;;;;;;;;4973963;28;20474;-80
2022/05/16 05:44:19;;;;;;;10.13;3.33;;;;;;;;;;4972864;28;20137;-78
2022/05/16 05:46:46;;;;;;;6.90;3.10;;;;;;;;;;4971528;28;20058;-79
2022/05/16 05:49:13;;;;;;;10.48;3.25;;;;;;;;;;4937810;28;20035;-79
2022/05/16 05:51:39;;;;;;;9.23;3.30;;;;;;;;;;4954051;28;20053;-79
2022/05/16 05:54:06;;;;;;;11.52;3.30;;;;;;;;;;4954642;28;20096;-79
2022/05/16 05:56:33;;;;;;;10.43;3.20;;;;;;;;;;4972790;28;20540;-79
2022/05/16 05:58:59;;;;;;;7.15;3.58;;;;;;;;;;4973868;28;20042;-81
2022/05/16 06:01:26;;;;;;;9.25;3.10;;;;;;;;;;4973050;28;20043;-79
2022/05/16 06:03:53;;;;;;;10.65;3.45;;;;;;;;;;4973516;28;20064;-81
2022/05/16 06:06:19;;;;;;;9.25;3.08;;;;;;;;;;4972991;28;20050;-80
2022/05/16 06:08:45;;;;;;;8.48;3.30;;;;;;;;;;4957156;28;20054;-80
2022/05/16 06:11:11;;;;;;;18.60;3.88;;;;;;;;;;4958347;28;20469;-79
2022/05/16 06:13:38;;;;;;;7.85;3.08;;;;;;;;;;4949964;28;20066;-80
2022/05/16 06:16:05;;;;;;;10.48;3.78;;;;;;;;;;4963938;28;20079;-79
2022/05/16 06:18:31;;;;;;;11.43;3.15;;;;;;;;;;4963522;28;20038;-79
2022/05/16 06:20:57;;;;;;;9.80;3.22;;;;;;;;;;4962483;28;20093;-80
2022/05/16 06:23:23;;;;;;;7.57;3.20;;;;;;;;;;4957162;28;20058;-80
2022/05/16 06:25:49;;;;;;;8.05;3.00;;;;;;;;;;4954250;28;20085;-80
2022/05/16 06:28:17;;;;;;;6.78;2.88;;;;;;;;;;4971529;28;20046;-80
2022/05/16 06:30:45;;;;;;;8.63;3.08;;;;;;;;;;4954649;28;20070;-80
2022/05/16 06:33:11;;;;;;;14.98;3.20;;;;;;;;;;4956017;28;20070;-81
2022/05/16 06:35:38;;;;;;;7.55;3.00;;;;;;;;;;4989831;28;20045;-79
2022/05/16 06:38:05;;;;;;;7.97;3.05;;;;;;;;;;4973830;28;20428;-80
2022/05/16 06:40:31;;;;;;;7.15;2.60;;;;;;;;;;4990545;28;20387;-79
2022/05/16 06:42:57;;;;;;;7.55;2.70;;;;;;;;;;4973171;28;20046;-79
2022/05/16 06:45:23;;;;;;;10.95;3.10;;;;;;;;;;4973208;28;20046;-79
2022/05/16 06:47:49;;;;;;;10.23;3.20;;;;;;;;;;4973409;28;20695;-80
2022/05/16 06:50:15;;;;;;;11.20;3.10;;;;;;;;;;4943940;28;20075;-79
2022/05/16 06:52:43;;;;;;;9.02;2.80;;;;;;;;;;4953827;28;20039;-79
2022/05/16 06:55:09;;;;;;;8.68;2.78;;;;;;;;;;4954410;28;20057;-80
2022/05/16 06:57:36;;;;;;;9.25;3.20;;;;;;;;;;4954022;28;20695;-80
2022/05/16 07:00:04;;;;;;;6.40;2.67;;;;;;;;;;4938502;28;20066;-79
2022/05/16 07:02:30;;;;;;;6.13;2.75;;;;;;;;;;4967581;28;20046;-80
2022/05/16 07:04:57;;;;;;;7.70;2.80;;;;;;;;;;4953715;28;20046;-79
2022/05/16 07:07:23;;;;;;;8.82;2.83;;;;;;;;;;4972302;28;20050;-79
2022/05/16 07:09:49;;;;;;;6.95;2.92;;;;;;;;;;4969269;28;20655;-75
2022/05/16 07:12:16;;;;;;;7.97;2.65;;;;;;;;;;4976561;28;20034;-75
2022/05/16 07:14:42;;;;;;;16.23;3.40;;;;;;;;;;4954199;28;20113;-75
2022/05/16 07:17:08;;;;;;;9.80;2.75;;;;;;;;;;4968167;28;20061;-75
2022/05/16 07:19:35;;;;;;;7.88;3.00;;;;;;;;;;4972540;28;20042;-75
2022/05/16 07:22:09;;;;;;;7.50;3.13;;;;;;;;;;4990464;28;20034;-75
2022/05/16 07:24:35;;;;;;;7.97;2.80;;;;;;;;;;4972676;28;20078;-74
2022/05/16 07:29:45;;;;;;;8.05;2.63;;;;;;;;;;4966386;28;20124;-74
2022/05/16 07:32:12;;;;;;;10.90;3.00;;;;;;;;;;4976193;28;20447;-74
2022/05/16 07:34:39;;;;;;;10.18;3.20;;;;;;;;;;4960027;28;20129;-74
2022/05/16 07:37:05;;;;;;;8.60;2.90;;;;;;;;;;4976685;28;20554;-74
2022/05/16 07:39:34;;;;;;;6.78;2.70;;;;;;;;;;4974364;28;20042;-76
2022/05/16 07:42:01;;;;;;;9.57;2.65;;;;;;;;;;4969821;28;20054;-82
2022/05/16 07:44:27;;;;;;;9.27;3.00;;;;;;;;;;4960022;28;20544;-81
2022/05/16 07:46:53;;;;;;;8.57;2.78;;;;;;;;;;4976166;28;20042;-82
2022/05/16 07:49:21;;;;;;;9.30;3.10;;;;;;;;;;4958779;28;20039;-82
2022/05/16 07:51:47;;;;;;;7.75;2.88;;;;;;;;;;4970014;28;20053;-81
2022/05/16 07:54:13;;;;;;;14.25;3.00;;;;;;;;;;4974787;28;20039;-82
2022/05/16 07:56:39;;;;;;;8.32;3.30;;;;;;;;;;4958789;28;20533;-82
2022/05/16 07:59:06;;;;;;;8.95;2.67;;;;;;;;;;4976211;28;20429;-82
2022/05/16 08:01:32;;;;;;;8.40;3.00;;;;;;;;;;4969844;28;20053;-83
2022/05/16 08:03:58;;;;;;;8.00;2.97;;;;;;;;;;4957273;28;20126;-81
2022/05/16 08:06:27;;;;;;;8.18;2.70;;;;;;;;;;4956721;28;20070;-83
2022/05/16 08:11:39;;;;;;;9.75;2.70;;;;;;;;;;4960569;28;20038;-82
2022/05/16 08:14:05;;;;;;;7.88;3.00;;;;;;;;;;4976525;28;20045;-82
2022/05/16 08:16:31;;;;;;;9.63;3.00;;;;;;;;;;4976084;28;20042;-82
2022/05/16 08:18:57;;;;;;;8.88;2.70;;;;;;;;;;4976322;28;20509;-82
2022/05/16 08:21:23;;;;;;;9.98;3.15;;;;;;;;;;4975755;28;20049;-83
2022/05/16 08:23:49;;;;;;;6.38;2.70;;;;;;;;;;4974266;28;20130;-82
2022/05/16 08:26:15;;;;;;;11.90;2.80;;;;;;;;;;4960004;28;20363;-81
2022/05/16 08:28:42;;;;;;;6.80;3.13;;;;;;;;;;4975534;28;20054;-82
2022/05/16 08:31:09;;;;;;;7.55;2.47;;;;;;;;;;4991783;28;20084;-82
2022/05/16 08:33:36;;;;;;;8.65;2.88;;;;;;;;;;4974663;28;20046;-82
2022/05/16 08:41:54;;;;;;;9.60;2.90;;;;;;;;;;4922327;29;20063;-81
2022/05/16 08:44:22;;;;;;;9.63;2.92;;;;;;;;;;4901161;29;20071;-81
2022/05/16 08:47:02;;;;;;;9.02;2.90;;;;;;;;;;4955535;28;20146;-81
2022/05/16 08:49:48;;;;;;;9.75;2.85;;;;;;;;;;4975306;28;20430;-81
2022/05/16 08:52:19;;;;;;;9.18;3.47;;;;;;;;;;4964994;28;20493;-81
2022/05/16 08:54:49;;;;;;;8.95;3.17;;;;;;;;;;4955834;28;20053;-81
2022/05/16 08:57:21;;;;;;;11.63;3.53;;;;;;;;;;4940386;28;20054;-81
2022/05/16 08:59:51;;;;;;;8.27;3.35;;;;;;;;;;4955977;28;20078;-81
2022/05/16 09:02:20;;;;;;;9.55;3.88;;;;;;;;;;4955768;28;20038;-81
2022/05/16 09:05:13;;;;;;;7.43;3.80;;;;;;;;;;4939773;28;20295;-82
2022/05/16 09:07:45;;;;;;;10.90;3.15;;;;;;;;;;4936904;28;20396;-81
2022/05/16 09:10:13;;;;;;;10.23;3.60;;;;;;;;;;4956165;28;20097;-81
2022/05/16 09:12:39;;;;;;;9.15;3.90;;;;;;;;;;4960436;28;20035;-82
2022/05/16 09:15:11;;;;;;;7.85;3.38;;;;;;;;;;4974984;28;20051;-82
2022/05/16 09:17:56;;;;;;;8.50;3.53;;;;;;;;;;4974628;28;20058;-81
2022/05/16 09:20:22;;;;;;;9.13;3.40;;;;;;;;;;4974919;28;20100;-82
2022/05/16 09:23:01;;;;;;;10.68;3.38;;;;;;;;;;4973407;28;20134;-81
2022/05/16 09:25:33;;;;;;;9.15;3.53;;;;;;;;;;4974220;28;20042;-81
2022/05/16 09:30:47;;;;;;;9.45;3.42;;;;;;;;;;4973670;28;20050;-81
2022/05/16 09:33:19;;;;;;;11.55;3.53;;;;;;;;;;4973898;28;20049;-81
2022/05/16 09:35:48;;;;;;;9.13;3.67;;;;;;;;;;4974428;28;20057;-81
2022/05/16 09:38:14;;;;;;;11.00;3.50;;;;;;;;;;4974180;28;20042;-82
2022/05/16 09:40:46;;;;;;;10.98;3.55;;;;;;;;;;4974022;28;20066;-82
2022/05/16 09:43:17;;;;;;;8.18;3.42;;;;;;;;;;4974984;28;20122;-81
2022/05/16 09:45:46;;;;;;;7.60;3.50;;;;;;;;;;4973977;28;20042;-81
2022/05/16 09:48:20;;;;;;;12.57;3.90;;;;;;;;;;4944427;28;20039;-81
2022/05/16 09:50:59;;;;;;;10.68;3.25;;;;;;;;;;4954799;28;20090;-81
2022/05/16 09:53:39;;;;;;;8.68;3.70;;;;;;;;;;4954573;28;20047;-81
2022/05/16 09:56:17;;;;;;;9.60;3.45;;;;;;;;;;4968812;28;20050;-81
2022/05/16 09:58:51;;;;;;;8.90;3.42;;;;;;;;;;4958098;28;20093;-82
2022/05/16 10:01:31;;;;;;;12.35;3.95;;;;;;;;;;4973384;28;20042;-81
2022/05/16 10:04:08;;;;;;;10.55;3.53;;;;;;;;;;4973921;28;20188;-81
2022/05/16 10:06:37;;;;;;;12.48;3.65;;;;;;;;;;4974078;28;20048;-81
2022/05/16 10:09:16;;;;;;;11.05;4.00;;;;;;;;;;4974039;28;20042;-81
2022/05/16 10:11:46;;;;;;;9.82;3.88;;;;;;;;;;4973945;28;20046;-81
2022/05/16 10:14:12;;;;;;;12.05;4.45;;;;;;;;;;4974129;28;20042;-81
2022/05/16 10:16:42;;;;;;;9.82;3.78;;;;;;;;;;4973785;28;20038;-81
2022/05/16 10:19:13;;;;;;;10.75;3.90;;;;;;;;;;4973872;28;20659;-81
2022/05/16 10:21:49;;;;;;;9.40;3.83;;;;;;;;;;4991081;28;20085;-81
2022/05/16 10:24:15;;;;;;;9.93;4.20;;;;;;;;;;4973432;28;20042;-81
2022/05/16 10:26:43;;;;;;;11.30;4.57;;;;;;;;;;4973856;28;20049;-81
2022/05/16 10:29:12;;;;;;;12.02;4.30;;;;;;;;;;4974396;28;20493;-81
2022/05/16 10:34:37;;;;;;;11.75;4.43;;;;;;;;;;4973253;28;20069;-81
2022/05/16 10:37:04;;;;;;;12.73;4.32;;;;;;;;;;4973216;28;20109;-81
2022/05/16 10:39:31;;;;;;;9.02;4.07;;;;;;;;;;4974040;28;20502;-81
2022/05/16 10:42:12;;;;;;;9.07;3.92;;;;;;;;;;4973233;28;20141;-81
2022/05/16 10:45:09;;;;;;;15.13;3.88;;;;;;;;;;4957619;28;20062;-81
2022/05/16 10:47:38;;;;;;;10.75;4.32;;;;;;;;;;4949199;28;20137;-82
2022/05/16 10:50:04;;;;;;;8.07;3.70;;;;;;;;;;4973789;28;20084;-82
2022/05/16 10:52:30;;;;;;;8.70;4.78;;;;;;;;;;4973292;28;20042;-82
2022/05/16 10:54:56;;;;;;;10.13;4.28;;;;;;;;;;4973580;28;20038;-82
2022/05/16 10:57:29;;;;;;;8.20;3.60;;;;;;;;;;4973130;28;20066;-82
2022/05/16 11:00:07;;;;;;;9.38;4.60;;;;;;;;;;4956920;28;20050;-82
2022/05/16 11:02:36;;;;;;;11.55;4.10;;;;;;;;;;4957650;28;20390;-82
2022/05/16 11:05:11;;;;;;;9.80;4.20;;;;;;;;;;4972738;28;20061;-82
2022/05/16 11:07:37;;;;;;;7.47;4.07;;;;;;;;;;4972988;28;20050;-82
2022/05/16 11:10:19;;;;;;;11.07;4.20;;;;;;;;;;4972604;28;20046;-82
2022/05/16 11:12:51;;;;;;;12.30;4.68;;;;;;;;;;4957215;28;20046;-82
2022/05/16 11:15:34;;;;;;;8.50;4.07;;;;;;;;;;4973082;28;20092;-82
2022/05/16 11:18:15;;;;;;;11.18;4.28;;;;;;;;;;4973007;28;20133;-82
2022/05/16 11:20:44;;;;;;;12.35;4.05;;;;;;;;;;4972128;28;20069;-82
2022/05/16 11:23:31;;;;;;;9.05;4.18;;;;;;;;;;4973271;28;20050;-82
2022/05/16 11:26:02;;;;;;;11.38;4.80;;;;;;;;;;4973187;28;20057;-82
2022/05/16 11:28:35;;;;;;;7.80;3.80;;;;;;;;;;4972662;28;20371;-82
2022/05/16 11:31:04;;;;;;;11.05;4.47;;;;;;;;;;4972432;28;20125;-82
2022/05/16 11:33:37;;;;;;;9.95;4.20;;;;;;;;;;4971643;28;20038;-82
2022/05/16 11:36:19;;;;;;;8.43;3.83;;;;;;;;;;4972640;28;20042;-80
2022/05/16 11:38:51;;;;;;;10.55;4.68;;;;;;;;;;4957153;28;20050;-80
2022/05/16 11:41:25;;;;;;;7.50;4.40;;;;;;;;;;4955905;28;20189;-80
2022/05/16 11:43:55;;;;;;;10.20;4.70;;;;;;;;;;4973044;28;20359;-80
2022/05/16 11:46:25;;;;;;;11.77;4.80;;;;;;;;;;4972990;28;20473;-80
2022/05/16 11:48:55;;;;;;;13.35;4.93;;;;;;;;;;4962824;28;20051;-80
2022/05/16 11:51:40;;;;;;;10.43;4.28;;;;;;;;;;4972388;28;20035;-80
2022/05/16 11:54:07;;;;;;;9.10;4.95;;;;;;;;;;4956844;28;20038;-80
2022/05/16 12:02:24;;;;;;;9.43;4.75;;;;;;;;;;4953485;28;20072;-82
2022/05/16 12:04:52;;;;;;;12.95;5.05;;;;;;;;;;4973392;28;20061;-82
2022/05/16 12:07:23;;;;;;;8.35;4.10;;;;;;;;;;4956372;28;20046;-82
2022/05/16 12:10:02;;;;;;;11.57;5.05;;;;;;;;;;4972760;28;20070;-82
2022/05/16 12:12:31;;;;;;;12.60;4.90;;;;;;;;;;4989566;28;20038;-82
2022/05/16 12:15:23;;;;;;;8.57;4.65;;;;;;;;;;4972692;28;20042;-82
2022/05/16 12:17:56;;;;;;;7.40;4.50;;;;;;;;;;4957158;28;20453;-82
2022/05/16 12:20:40;;;;;;;10.55;4.90;;;;;;;;;;4975432;28;20034;-82
2022/05/16 12:23:08;;;;;;;11.80;4.90;;;;;;;;;;4975460;28;20042;-81
2022/05/16 12:25:36;;;;;;;11.18;5.22;;;;;;;;;;4960152;28;20056;-81
2022/05/16 12:28:22;;;;;;;11.95;4.90;;;;;;;;;;4975891;28;20077;-82
2022/05/16 12:30:59;;;;;;;9.80;5.43;;;;;;;;;;4976324;28;20513;-81
2022/05/16 12:33:34;;;;;;;10.95;5.90;;;;;;;;;;4975471;28;20046;-82
2022/05/16 12:36:00;;;;;;;11.10;6.13;;;;;;;;;;4975784;28;20108;-82
2022/05/16 12:38:27;;;;;;;12.45;7.82;;;;;;;;;;4959610;28;20451;-82
2022/05/16 12:41:06;;;;;;;11.30;7.28;;;;;;;;;;4975715;28;20065;-82
2022/05/16 12:43:39;;;;;;;13.27;8.07;;;;;;;;;;4975328;28;20054;-81
2022/05/16 12:46:15;;;;;;;13.55;8.10;;;;;;;;;;4975199;28;20511;-82
2022/05/16 12:49:00;;;;;;;12.43;7.68;;;;;;;;;;4941520;28;20518;-82
2022/05/16 12:51:26;;;;;;;13.57;8.17;;;;;;;;;;4940170;28;20074;-82
2022/05/16 12:53:58;;;;;;;12.27;7.78;;;;;;;;;;4956294;28;20278;-82
2022/05/16 12:56:40;;;;;;;13.40;6.95;;;;;;;;;;4940266;28;20046;-81
2022/05/16 12:59:24;;;;;;;16.33;8.30;;;;;;;;;;4973962;28;20426;-82
2022/05/16 13:01:55;;;;;;;12.37;8.53;;;;;;;;;;4975835;28;20046;-81
2022/05/16 13:04:41;;;;;;;11.38;8.07;;;;;;;;;;4975040;28;20092;-82
2022/05/16 13:07:26;;;;;;;14.23;7.78;;;;;;;;;;4975385;28;20379;-82
2022/05/16 13:09:55;;;;;;;15.38;9.07;;;;;;;;;;4974556;28;20038;-82
2022/05/16 13:12:30;;;;;;;17.13;7.60;;;;;;;;;;4958907;28;20073;-82
2022/05/16 13:14:58;;;;;;;;;;;;;;;;;;4975857;28;20048;-82
2022/05/16 13:17:31;;;;;;;17.48;8.85;;;;;;;;;;4974339;28;19953;-82
2022/05/16 13:20:00;;;;;;;14.35;9.57;;;;;;;;;;4974620;28;20089;-81
2022/05/16 13:22:26;;;;;;;12.63;8.75;;;;;;;;;;4974549;28;20122;-82
2022/05/16 13:24:53;;;;;;;15.98;9.68;;;;;;;;;;4974656;28;20042;-82
2022/05/16 13:30:08;;;;;;;12.32;7.43;;;;;;;;;;4974543;28;20398;-81
2022/05/16 13:32:34;;;;;;;15.38;6.65;;;;;;;;;;4974455;28;20048;-82
2022/05/16 13:35:05;;;;;;;15.10;5.90;;;;;;;;;;4974358;28;20045;-82
2022/05/16 13:37:42;;;;;;;12.95;6.30;;;;;;;;;;4974501;28;20069;-82
2022/05/16 13:40:12;;;;;;;13.55;5.72;;;;;;;;;;4958475;28;20537;-82
2022/05/16 13:42:38;;;;;;;13.00;5.95;;;;;;;;;;4974158;28;20130;-81
2022/05/16 13:45:08;;;;;;;14.80;7.40;;;;;;;;;;4974393;28;20116;-81
2022/05/16 13:47:39;;;;;;;13.88;7.97;;;;;;;;;;4991456;28;20129;-80
2022/05/16 13:50:05;;;;;;;14.70;7.72;;;;;;;;;;4974502;28;20502;-82
2022/05/16 13:52:39;;;;;;;12.88;6.95;;;;;;;;;;4958159;28;20526;-81
2022/05/16 13:55:08;;;;;;;14.23;6.65;;;;;;;;;;4974369;28;20113;-81
2022/05/16 13:57:35;;;;;;;19.35;7.05;;;;;;;;;;4974099;28;20054;-81
2022/05/16 14:00:09;;;;;;;17.02;7.68;;;;;;;;;;4974349;28;20487;-81
2022/05/16 14:02:35;;;;;;;13.73;7.75;;;;;;;;;;4991622;28;20122;-80
2022/05/16 14:05:06;;;;;;;15.52;8.10;;;;;;;;;;4958295;28;20047;-81
2022/05/16 14:07:34;;;;;;;13.43;7.75;;;;;;;;;;4973535;28;20050;-82
2022/05/16 14:10:08;;;;;;;15.30;9.15;;;;;;;;;;4973706;28;20050;-82
2022/05/16 14:12:37;;;;;;;13.90;8.45;;;;;;;;;;4973164;28;20039;-82
2022/05/16 14:15:05;;;;;;;17.08;8.82;;;;;;;;;;4973918;28;20125;-81
2022/05/16 14:17:35;;;;;;;17.17;9.13;;;;;;;;;;4973250;28;20501;-81
2022/05/16 14:20:05;;;;;;;17.20;11.93;;;;;;;;;;4973915;28;20390;-81
2022/05/16 14:22:34;;;;;;;20.42;12.32;;;;;;;;;;4973375;28;20054;-81
2022/05/16 14:25:05;;;;;;;19.45;13.63;;;;;;;;;;4973632;28;20104;-80
2022/05/16 14:27:43;;;;;;;31.77;16.17;;;;;;;;;;4973164;28;20482;-81
2022/05/16 14:30:16;;;;;;;23.75;14.75;;;;;;;;;;4991123;28;20058;-82
2022/05/16 14:32:47;;;;;;;22.10;13.85;;;;;;;;;;4972736;28;20058;-81
2022/05/16 14:35:19;;;;;;;21.77;13.85;;;;;;;;;;4972913;28;20099;-81
2022/05/16 14:37:45;;;;;;;25.52;14.43;;;;;;;;;;4957356;28;20132;-81
2022/05/16 14:40:14;;;;;;;23.63;13.15;;;;;;;;;;4972500;28;20501;-81
2022/05/16 14:42:40;;;;;;;20.63;11.07;;;;;;;;;;4973277;28;20062;-81
2022/05/16 14:45:09;;;;;;;18.13;10.82;;;;;;;;;;4973273;28;20047;-81
2022/05/16 14:47:40;;;;;;;21.83;11.02;;;;;;;;;;4963856;28;20042;-81
2022/05/16 14:50:11;;;;;;;17.63;10.77;;;;;;;;;;4959106;28;20122;-81
2022/05/16 14:52:39;;;;;;;18.27;11.40;;;;;;;;;;4973243;28;20038;-81
2022/05/16 14:55:09;;;;;;;19.85;11.07;;;;;;;;;;4973435;28;20050;-81
2022/05/16 14:57:35;;;;;;;18.95;11.00;;;;;;;;;;4972916;28;20042;-80
2022/05/16 15:00:01;;;;;;;18.65;10.93;;;;;;;;;;4989499;28;20046;-82
2022/05/16 15:05:12;;;;;;;20.20;11.60;;;;;;;;;;4990791;28;20095;-81
2022/05/16 15:07:40;;;;;;;25.95;13.10;;;;;;;;;;4973109;28;20470;-81
2022/05/16 15:10:07;;;;;;;23.38;13.90;;;;;;;;;;4973251;28;20038;-82
2022/05/16 15:12:34;;;;;;;26.83;13.93;;;;;;;;;;4972603;28;20118;-81
2022/05/16 15:15:02;;;;;;;31.40;15.20;;;;;;;;;;4956913;28;20073;-81
2022/05/16 15:17:28;;;;;;;27.35;15.93;;;;;;;;;;4969747;28;20054;-81
2022/05/16 15:19:54;;;;;;;33.40;16.70;;;;;;;;;;4970019;28;20125;-77
2022/05/16 15:22:21;;;;;;;31.52;17.00;;;;;;;;;;4970954;28;20145;-74
2022/05/16 15:24:55;;;;;;;33.03;17.77;;;;;;;;;;4967708;28;20437;-75
2022/05/16 15:27:23;;;;;;;30.90;18.92;;;;;;;;;;4972047;28;20402;-75